more information


Thunder radar more information blitzortung!


Rain radar more information rain snow radar


Visit our other weather sites:

Template documentation
and downloads

And another site


Nearby METAR Reports

   
EHVK - Volkel Rnlafb, Netherlands
Distance from station: SW 11 mi
Updated: Jul 14 2020 2:55 am
Overcast  
Overcast  
   Wind: South 5 mph
Wind: South 5 mph
Temperature: 63°F
Dew Point: 54°F
Humidity: 73%
Barometer: 29.97 inHg
Clouds: Overcast
Visibility: More than 6 mi
Cloud details: Partly Cloudy 2042 m,
Overcast 2621 m
EHVK 140655Z AUTO 19004KT 9999 SCT067 OVC086 17/12 Q1015 BLU BECMG SCT020 OVC030
EDLV - Niederrhein, Germany
Distance from station: SE 15 mi
Updated: Jul 14 2020 2:50 am
Clear  
Clear  
   Wind: varies 4 mph
Wind: varies 4 mph
Temperature: 61°F
Dew Point: 54°F
Humidity: 77%
Barometer: 30 inHg
Visibility: More than 6 mi
Cloud details: Clear
EDLV 140650Z VRB03KT CAVOK 16/12 Q1016
EHDL - Deelen Rnlafb, Netherlands
Distance from station: N 22 mi
Updated: Jul 14 2020 2:55 am
Overcast  
Overcast  
   Wind: SSW 5 mph
Wind: SSW 5 mph
Temperature: 61°F
Dew Point: 55°F
Humidity: 83%
Barometer: 29.97 inHg
Clouds: Overcast
Visibility: More than 6 mi
Cloud details: Overcast 2225 m
EHDL 140655Z AUTO 21004KT 150V260 9999 OVC073 16/13 Q1015 BLU
EHEH - Eindhoven Rnlafb, Netherlands
Distance from station: SW 30 mi
Updated: Jul 14 2020 2:55 am
Overcast  
Overcast  
   Wind: SSW 6 mph
Wind: SSW 6 mph
Temperature: 63°F
Dew Point: 55°F
Humidity: 77%
Barometer: 29.97 inHg
Clouds: Overcast
Visibility: More than 6 mi
Cloud details: Few Clouds 2286 m,
Overcast 3048 m
EHEH 140655Z AUTO 21005KT 190V270 9999 FEW075 OVC100 17/13 Q1015 REDZ BLU NOSIG
EHGR - Gilze-Rijen Rnla, Netherlands
Distance from station: WSW 43 mi
Updated: Jul 14 2020 2:55 am
Overcast  
Overcast  
   Wind: SW 6 mph
Wind: SW 6 mph
Temperature: 63°F
Dew Point: 54°F
Humidity: 73%
Barometer: 29.97 inHg
Clouds: Overcast
Visibility: More than 6 mi
Cloud details: Overcast 2195 m
EHGR 140655Z AUTO 22005KT 190V260 9999 OVC072 17/12 Q1015 BLU NOSIG
EBBL - Kleine-Brogel(Ba, Belgium
Distance from station: SSW 44 mi
Updated: Jul 14 2020 2:55 am
Mostly Cloudy  
Mostly Cloudy  
   Wind: varies 2 mph
Wind: varies 2 mph
Temperature: 64°F
Dew Point: 52°F
Humidity: 64%
Barometer: 30 inHg
Clouds: Mostly Cloudy
Visibility: More than 6 mi
Cloud details: Mostly Cloudy 3048 m
EBBL 140655Z VRB02KT 9999 BKN100 18/11 Q1016 BLU BLU

Script developed by  Saratoga-weather.org Adapted for the template by  Weerstation Leuven

You find our weather info also at:

WeatherCloud

Weather Underground

Citizen Weather Observer Program (CWOP)

Equipment we use:

Weather-station
Davis VP2

Weather-program
Cumulus

Davis VP2

Cumulus